Sand Spring Valley, Nevada Weather observations

Data are for 10 minute period ending at time listed.
 Day   Time   Solar   Ave.   Ave.  Ave.  Vector  Max.   Baro.   Total    
  of    of     Rad.   Air    Rel.  Wind   Wind   Wind  Press.  Precip.   
Year   Day            Temp.  Hum.  Speed  Dir.   Gust                    
2015   (PST)  Kw/m2    F      %     mph   deg.    mph    mb.     in.     
-------------------------------------------------------------------------
  59   12:00   0.00   42.1    66   12.2   205    16.7   841.7    0.00 
  59   12:10   0.00   42.0    67    9.7   213    14.9   841.7    0.00 
  59   12:20   0.00   40.7    73   12.7   252    17.8   841.8    0.00 
  59   12:30   0.00   38.8    75   12.9   272    17.5   841.9    0.00 
  59   12:40   0.00   38.4    75   14.1   285    17.8   841.9    0.00 
  59   12:50   0.00   37.5    76   13.2   273    17.1   842.0    0.00 
  59   13:00   0.00   37.7    79   12.8   262    16.2   842.1    0.00 
  59   13:10   0.00   37.7    80   13.1   248    16.4   842.2    0.00 
  59   13:20   0.00   36.6    83   13.6   237    16.8   842.2    0.00 
  59   13:30   0.00   35.4    87   12.9   222    16.4   842.3    0.00 
  59   13:40   0.00   35.4    88   11.2   222    13.8   842.4    0.00 
  59   13:50   0.00   35.6    87   11.3   220    14.3   842.4    0.00 
  59   14:00   0.00   35.4    90   11.1   228    14.3   842.4    0.00 
  59   14:10   0.00   35.0    91   10.8   238    13.7   842.6    0.00 
  59   14:20   0.00   35.1    92   11.4   227    14.9   842.7    0.00 
  59   14:30   0.00   35.0    92   12.0   224    14.7   842.8    0.00 
  59   14:40   0.00   35.1    92   11.7   224    14.5   842.9    0.00 
  59   14:50   0.00   35.5    92   11.1   226    13.8   843.0    0.00 
  59   15:00   0.00   35.6    92   10.4   227    13.6   843.1    0.00 
  59   15:10   0.00   35.7    89   10.4   227    14.5   843.2    0.00 
  59   15:20   0.00   35.9    85    9.8   228    12.0   843.4    0.00 
  59   15:30   0.00   36.2    87    9.4   221    12.6   843.5    0.00 
  59   15:40   0.00   35.9    87    9.4   216    12.1   843.6    0.00 
  59   15:50   0.00   36.0    87    8.7   201    11.1   843.6    0.00 
  59   16:00   0.00   36.1    85    5.0   196     8.4   843.6    0.00 
  59   16:10   0.00   36.1    85    3.9   206     6.6   843.6    0.00 
  59   16:20   0.00   36.0    86    3.2   203     5.8   843.7    0.00 
  59   16:30   0.00   36.0    86    1.9   215     3.1   843.8    0.00 
  59   16:40   0.00   35.8    86    2.9   228     4.0   843.9    0.00 
  59   16:50   0.00   35.7    87    2.9   244     3.9   844.0    0.00 
  59   17:00   0.00   35.8    87    4.0   241     5.3   844.1    0.00 
  59   17:10   0.00   35.8    86    3.4   232     4.8   844.2    0.00 
  59   17:20   0.00   35.8    86    4.2   249     6.3   844.3    0.00 
  59   17:30   0.00   35.8    86    6.3   242     8.0   844.4    0.00 
  59   17:40   0.00   36.0    84    8.4   242    13.2   844.6    0.00 
  59   17:50   0.00   35.7    84    6.5   241     9.3   844.8    0.00 
  59   18:00   0.00   35.5    86    5.4   219     7.2   844.9    0.00 
  59   18:10   0.00   35.3    88    5.0   202     6.7   845.1    0.00 
  59   18:20   0.00   35.2    88    2.3   204     3.9   845.2    0.00 
  59   18:30   0.00   35.4    87    4.1   216     7.2   845.2    0.00 
  59   18:40   0.00   34.9    88    2.0   218     4.5   845.3    0.00 
  59   18:50   0.00   34.7    89    1.4   281     3.2   845.3    0.00 
  59   19:00   0.00   34.5    89    1.3    22     3.2   845.3    0.00 
  59   19:10   0.00   34.0    90    0.3    54     3.4   845.4    0.00 
  59   19:20   0.00   34.0    89    0.2    57     2.6   845.6    0.00 
  59   19:30   0.00   34.0    89    1.1    27     3.0   845.8    0.00 
  59   19:40   0.00   33.7    88    2.7   360     3.8   845.8    0.00 
  59   19:50   0.00   33.0    88    2.6    36     3.5   845.9    0.00 
  59   20:00   0.00   32.5    90    0.9    23     1.6   845.9    0.00 
  59   20:10   0.00   32.4    90    0.8   356     1.9   846.1    0.00 
  59   20:20   0.00   31.5    89    0.0     0     0.0   846.2    0.00 
  59   20:30   0.00   31.3    91    0.3   351     1.2   846.3    0.00 
  59   20:40   0.00   29.8    90    1.3   351     2.5   846.4    0.00 
  59   20:50   0.00   30.2    92    2.0   351     3.1   846.6    0.00 
  59   21:00   0.00   28.9    90    0.7   322     2.1   846.8    0.00 
  59   21:10   0.00   27.8    93    2.8   220     3.9   846.9    0.00 
  59   21:20   0.00   29.1    94    2.4   225     3.2   847.1    0.00 
  59   21:30   0.00   29.4    93    3.5   240     4.3   847.2    0.00 
  59   21:40   0.00   28.2    92    3.8   257     4.7   847.3    0.00 
  59   21:50   0.00   28.1    93    3.5   251     5.9   847.4    0.00 
  59   22:00   0.00   28.7    93    4.1   238     5.3   847.6    0.00 
  59   22:10   0.00   29.1    93    2.5   239     4.7   847.7    0.00 
  59   22:20   0.00   28.2    92    3.7   223     4.7   847.8    0.00 
  59   22:30   0.00   28.3    93    3.2   224     4.2   847.9    0.00 
  59   22:40   0.00   28.9    92    3.2   243     4.1   847.9    0.00 
  59   22:50   0.00   28.7    92    3.2   238     3.8   847.9    0.00 
  59   23:00   0.00   28.5    92    2.8   246     3.8   847.9    0.00 
  59   23:10   0.00   28.4    92    1.6   232     4.1   848.0    0.00 
  59   23:20   0.00   27.7    92    3.6   209     4.7   848.2    0.00 
  59   23:30   0.00   28.3    93    2.9   234     5.1   848.2    0.00 
  59   23:40   0.00   29.0    93    3.3   239     5.0   848.3    0.00 
  59   23:50   0.00   29.6    93    4.1   238     5.2   848.4    0.00 
  60    0:00   0.00   29.9    92    3.1   228     4.1   848.5    0.00 
  60    0:10   0.00   29.9    92    2.2   245     3.3   848.5    0.00 
  60    0:20   0.00   29.4    92    2.4   244     3.3   848.6    0.00 
  60    0:30   0.00   28.9    92    2.5   244     2.9   848.6    0.00 
  60    0:40   0.00   28.5    92    2.9   265     4.6   848.7    0.00 
  60    0:50   0.00   28.3    92    3.6   262     4.5   848.8    0.00 
  60    1:00   0.00   28.1    92    3.5   249     4.7   848.9    0.00 
  60    1:10   0.00   27.7    92    3.7   243     4.0   848.9    0.00 
  60    1:20   0.00   26.8    91    2.7   236     3.5   849.0    0.00 
  60    1:30   0.00   26.9    93    2.5   236     2.9   849.0    0.00 
  60    1:40   0.00   26.9    92    1.7   267     2.9   849.0    0.00 
  60    1:50   0.00   27.0    93    0.3   330     1.3   849.1    0.00 
  60    2:00   0.00   26.8    92    1.2   297     3.4   849.1    0.00 
  60    2:10   0.00   26.1    92    0.2   214     2.8   849.1    0.00 
  60    2:20   0.00   26.5    93    1.0   275     3.4   849.0    0.00 
  60    2:30   0.00   25.5    92    3.3   126     4.7   849.0    0.00 
  60    2:40   0.00   24.7    93    0.8   139     1.5   849.0    0.00 
  60    2:50   0.00   24.4    93    1.7   173     2.8   849.0    0.00 
  60    3:00   0.00   24.0    93    1.7   174     2.9   849.0    0.00 
  60    3:10   0.00   24.6    93    0.7   174     1.6   849.0    0.00 
  60    3:20   0.00   24.9    94    1.4   174     2.4   849.0    0.00 
  60    3:30   0.00   25.1    93    0.0     0     0.0   849.1    0.00 
  60    3:40   0.00   24.3    93    0.3   174     1.2   849.1    0.00 
  60    3:50   0.00   24.8    94    0.3   268     2.9   849.1    0.00 
  60    4:00   0.00   24.9    93    3.1   298     4.7   849.2    0.00 
  60    4:10   0.00   24.4    93    2.9   292     4.4   849.3    0.00 
  60    4:20   0.00   24.2    93    3.1   290     4.6   849.3    0.00 
  60    4:30   0.00   23.5    93    0.7   288     1.8   849.4    0.00 
  60    4:40   0.00   23.3    93    0.2   288     0.7   849.5    0.00 
  60    4:50   0.00   23.0    94    0.7   226     2.1   849.6    0.00 
  60    5:00   0.00   23.9    94    0.0   150     0.7   849.7    0.00 
  60    5:10   0.00   24.1    94    0.0   150     0.1   849.8    0.00 
  60    5:20   0.00   24.8    94    0.1   175     0.9   849.9    0.00 
  60    5:30   0.00   25.8    94    2.2   202     4.2   850.0    0.00 
  60    5:40   0.00   26.8    94    1.9   217     4.1   850.1    0.00 
  60    5:50   0.00   26.7    93    0.6   222     2.6   850.1    0.00 
  60    6:00   0.00   26.5    93    3.3   252     4.4   850.1    0.00 
  60    6:10   0.00   26.4    93    4.3   268     5.6   850.2    0.00 
  60    6:20   0.00   26.1    92    2.9   333     6.6   850.3    0.00 
  60    6:30   0.00   25.5    93    1.2     3     3.0   850.4    0.00 
  60    6:40   0.00   25.4    93    0.0     0     0.0   850.4    0.00 
  60    6:50   0.00   26.0    93    0.0     0     0.0   850.5    0.00 
  60    7:00   0.00   27.4    93    0.0     0     0.0   850.7    0.00 
  60    7:10   0.00   29.6    93    0.0   331     0.3   850.7    0.00 
  60    7:20   0.00   30.9    90    1.3   200     3.1   850.9    0.00 
  60    7:30   0.00   31.9    87    2.2   189     4.0   851.1    0.01 
  60    7:40   0.00   32.1    86    2.3   229     3.4   851.1    0.00 
  60    7:50   0.00   33.3    86    1.0   252     2.4   851.2    0.00 
  60    8:00   0.00   33.3    86    1.1   307     2.3   851.2    0.00 
  60    8:10   0.00   33.3    87    0.8   299     2.3   851.3    0.00 
  60    8:20   0.00   35.0    86    0.2   273     1.6   851.3    0.00 
  60    8:30   0.00   36.2    81    0.0   317     0.7   851.4    0.00 
  60    8:40   0.00   36.9    80    0.1     7     2.2   851.5    0.00 
  60    8:50   0.00   36.6    79    1.4   359     4.0   851.5    0.00 
  60    9:00   0.00   35.9    81    2.7    14     4.7   851.5    0.00 
  60    9:10   0.00   36.1    82    3.5    44     5.4   851.6    0.00 
  60    9:20   0.00   36.6    81    2.8    32     5.6   851.6    0.00 
  60    9:30   0.00   36.6    80    1.2    45     3.1   851.6    0.00 
  60    9:40   0.00   37.0    78    1.9    50     3.6   851.6    0.00 
  60    9:50   0.00   37.7    78    2.2    74     4.2   851.4    0.00 
  60   10:00   0.00   38.6    75    3.0    73     5.0   851.4    0.00 
  60   10:10   0.00   38.9    75    2.3    90     4.2   851.3    0.00 
  60   10:20   0.00   39.8    71    3.5    43     6.4   851.0    0.00 
  60   10:30   0.00   39.8    70    3.9    76     6.3   851.2    0.00 
  60   10:40   0.00   40.5    71    4.5    73     8.7   851.3    0.00 
  60   10:50   0.00   41.4    72    6.8    79    10.6   850.9    0.00 
  60   11:00   0.00   43.1    67    7.8    68    15.2   850.7    0.00 
  60   11:10   0.00   43.0    62   12.2    55    17.4   850.5    0.00 
  60   11:20   0.00   42.9    64   15.2    70    20.9   850.7    0.00 
  60   11:30   0.00   42.7    65   16.3    81    20.8   850.4    0.00 
  60   11:40   0.00   41.6    69   14.4    75    18.5   850.2    0.00 
  60   11:50   0.00   42.2    66   15.0    73    19.6   850.4    0.00 

Return to Sand Spring Valley graphs page.


Western Regional Climate Center,wrcc@dri.edu